createdAt,value
2016-05-13T00:00:10.025Z,19.63
2016-05-13T00:01:10.042Z,19.48
2016-05-13T00:02:09.920Z,19.59
2016-05-13T00:03:10.110Z,19.59
2016-05-13T00:04:10.128Z,19.63
2016-05-13T00:05:10.210Z,19.62
2016-05-13T00:06:10.306Z,19.66
2016-05-13T00:07:10.215Z,19.64
2016-05-13T00:08:10.233Z,19.58
2016-05-13T00:09:10.283Z,19.52
2016-05-13T00:10:10.285Z,19.52
2016-05-13T00:11:10.304Z,19.52
2016-05-13T00:12:10.338Z,19.52
2016-05-13T00:13:10.372Z,19.49
2016-05-13T00:14:10.390Z,19.37
2016-05-13T00:15:10.440Z,19.44
2016-05-13T00:16:10.442Z,19.3
2016-05-13T00:17:10.476Z,19.41
2016-05-13T00:18:10.650Z,19.39
2016-05-13T00:19:10.528Z,19.39
2016-05-13T00:20:10.563Z,19.47
2016-05-13T00:21:10.581Z,19.39
2016-05-13T00:22:10.599Z,19.34
2016-05-13T00:23:10.633Z,19.3
2016-05-13T00:24:10.495Z,19.33
2016-05-13T00:25:10.685Z,19.37
2016-05-13T00:26:10.719Z,19.24
2016-05-13T00:27:10.737Z,19.3
2016-05-13T00:28:10.443Z,19.31
2016-05-13T00:29:10.774Z,19.3
2016-05-13T00:30:10.823Z,19.31
2016-05-13T00:31:10.842Z,19.29
2016-05-13T00:32:10.875Z,19.29
2016-05-13T00:33:10.582Z,19.29
2016-05-13T00:34:10.913Z,19.18
2016-05-13T00:35:10.947Z,19.27
2016-05-13T00:36:10.980Z,19.14
2016-05-13T00:37:10.686Z,19.22
2016-05-13T00:38:11.016Z,19.12
2016-05-13T00:39:11.051Z,19.02
2016-05-13T00:40:11.069Z,19.16
2016-05-13T00:41:11.088Z,19.09
2016-05-13T00:42:11.138Z,19.09
2016-05-13T00:43:11.171Z,18.99
2016-05-13T00:44:11.174Z,18.98
2016-05-13T00:45:11.207Z,19.02
2016-05-13T00:46:11.226Z,19.08
2016-05-13T00:47:11.260Z,18.89
2016-05-13T00:48:11.279Z,18.98
2016-05-13T00:49:11.312Z,18.95
2016-05-13T00:50:11.362Z,19.07
2016-05-13T00:51:11.411Z,18.88
2016-05-13T00:52:11.398Z,18.96
2016-05-13T00:53:11.260Z,18.86
2016-05-13T00:54:11.278Z,18.92
2016-05-13T00:55:11.470Z,18.96
2016-05-13T00:56:11.487Z,18.88
2016-05-13T00:57:11.521Z,18.84
2016-05-13T00:58:11.540Z,18.95
2016-05-13T00:59:11.558Z,18.89
2016-05-13T01:00:11.592Z,18.9
2016-05-13T01:01:11.610Z,18.83
2016-05-13T01:02:11.655Z,18.86
2016-05-13T01:03:11.576Z,18.84
2016-05-13T01:04:11.795Z,18.84
2016-05-13T01:05:11.715Z,18.78
2016-05-13T01:06:11.934Z,18.78
2016-05-13T01:07:11.987Z,18.75
2016-05-13T01:08:11.881Z,18.75
2016-05-13T01:09:11.931Z,18.74
2016-05-13T01:10:11.965Z,18.78
2016-05-13T01:11:12.155Z,18.74
2016-05-13T01:12:12.202Z,18.74
2016-05-13T01:13:12.070Z,18.73
2016-05-13T01:14:12.265Z,18.66
2016-05-13T01:15:12.305Z,18.75
2016-05-13T01:16:12.329Z,18.66
2016-05-13T01:17:12.367Z,18.58
2016-05-13T01:18:12.387Z,18.71
2016-05-13T01:19:12.251Z,18.62
2016-05-13T01:20:12.427Z,18.56
2016-05-13T01:21:12.479Z,18.6
2016-05-13T01:22:12.499Z,18.56
2016-05-13T01:23:12.518Z,18.62
2016-05-13T01:24:13.287Z,18.6
2016-05-13T01:25:12.416Z,18.56
2016-05-13T01:26:12.607Z,18.56
2016-05-13T01:27:12.625Z,18.49
2016-05-13T01:28:12.660Z,18.56
2016-05-13T01:29:12.679Z,18.5
2016-05-13T01:30:12.712Z,18.49
2016-05-13T01:31:12.732Z,18.55
2016-05-13T01:32:12.750Z,18.5
2016-05-13T01:33:12.627Z,18.53
2016-05-13T01:34:12.802Z,18.5
2016-05-13T01:35:12.820Z,18.49
2016-05-13T01:36:12.870Z,18.41
2016-05-13T01:37:12.889Z,18.44
2016-05-13T01:38:12.923Z,18.38
2016-05-13T01:39:12.941Z,18.47
2016-05-13T01:40:12.959Z,18.38
2016-05-13T01:41:12.977Z,18.41
2016-05-13T01:42:13.012Z,18.37
2016-05-13T01:43:13.029Z,18.35
2016-05-13T01:44:13.064Z,18.29
2016-05-13T01:45:13.098Z,18.31
2016-05-13T01:46:13.115Z,18.37
2016-05-13T01:47:13.134Z,18.23
2016-05-13T01:48:13.184Z,18.2
2016-05-13T01:49:13.031Z,18.29
2016-05-13T01:50:13.065Z,18.26
2016-05-13T01:51:13.239Z,18.2
2016-05-13T01:52:13.257Z,18.2
2016-05-13T01:53:13.306Z,18.2
2016-05-13T01:54:13.325Z,18.22
2016-05-13T01:55:13.343Z,18.23
2016-05-13T01:56:13.205Z,18.1
2016-05-13T01:57:13.395Z,18.15
2016-05-13T01:58:13.414Z,18.18
2016-05-13T01:59:13.448Z,18.18
2016-05-13T02:00:13.466Z,18.11
2016-05-13T02:01:13.500Z,18.08
2016-05-13T02:02:13.518Z,18.15
2016-05-13T02:03:13.396Z,18.2
2016-05-13T02:04:13.258Z,18.07
2016-05-13T02:05:13.605Z,18.07
2016-05-13T02:06:13.466Z,18.04
2016-05-13T02:07:13.485Z,18.03
2016-05-13T02:08:13.659Z,18.05
2016-05-13T02:09:13.553Z,18.05
2016-05-13T02:10:13.571Z,18.04
2016-05-13T02:11:13.746Z,18.04
2016-05-13T02:12:13.765Z,18
2016-05-13T02:13:13.798Z,17.97
2016-05-13T02:14:13.815Z,18.01
2016-05-13T02:15:13.850Z,17.92
2016-05-13T02:16:13.869Z,17.95
2016-05-13T02:17:13.903Z,17.94
2016-05-13T02:18:13.937Z,17.92
2016-05-13T02:19:13.939Z,17.94
2016-05-13T02:20:13.972Z,17.92
2016-05-13T02:21:13.850Z,17.95
2016-05-13T02:22:14.025Z,17.94
2016-05-13T02:23:14.059Z,17.9
2016-05-13T02:24:14.078Z,17.85
2016-05-13T02:25:14.095Z,17.87
2016-05-13T02:26:14.130Z,17.89
2016-05-13T02:27:14.148Z,17.8
2016-05-13T02:28:14.182Z,17.9
2016-05-13T02:29:14.044Z,17.83
2016-05-13T02:30:14.063Z,17.78
2016-05-13T02:31:14.237Z,17.72
2016-05-13T02:32:14.271Z,17.78
2016-05-13T02:33:14.383Z,17.78
2016-05-13T02:34:14.323Z,17.74
2016-05-13T02:35:14.357Z,17.74
2016-05-13T02:36:14.374Z,17.74
2016-05-13T02:37:14.393Z,17.68
2016-05-13T02:38:14.428Z,17.68
2016-05-13T02:39:14.462Z,17.68
2016-05-13T02:40:14.465Z,17.71
2016-05-13T02:41:14.498Z,17.72
2016-05-13T02:42:14.516Z,17.7
2016-05-13T02:43:14.551Z,17.67
2016-05-13T02:44:14.568Z,17.7
2016-05-13T02:45:14.603Z,17.71
2016-05-13T02:46:14.465Z,17.63
2016-05-13T02:47:14.654Z,17.67
2016-05-13T02:48:14.689Z,17.7
2016-05-13T02:49:14.707Z,17.68
2016-05-13T02:50:14.726Z,17.59
2016-05-13T02:51:14.745Z,17.64
2016-05-13T02:52:14.622Z,17.54
2016-05-13T02:53:14.795Z,17.54
2016-05-13T02:54:14.673Z,17.6
2016-05-13T02:55:14.848Z,17.56
2016-05-13T02:56:14.866Z,17.59
2016-05-13T02:57:14.901Z,17.48
2016-05-13T02:58:14.919Z,17.51
2016-05-13T02:59:14.953Z,17.49
2016-05-13T03:00:14.814Z,17.6
2016-05-13T03:01:14.849Z,17.49
2016-05-13T03:02:15.024Z,17.54
2016-05-13T03:03:15.041Z,17.56
2016-05-13T03:04:14.904Z,17.49
2016-05-13T03:05:15.094Z,17.41
2016-05-13T03:06:14.972Z,17.54
2016-05-13T03:07:14.990Z,17.48
2016-05-13T03:08:14.868Z,17.39
2016-05-13T03:09:15.199Z,17.44
2016-05-13T03:10:15.217Z,17.31
2016-05-13T03:11:15.251Z,17.33
2016-05-13T03:12:15.129Z,17.34
2016-05-13T03:13:15.287Z,17.38
2016-05-13T03:14:15.165Z,17.39
2016-05-13T03:15:15.340Z,17.31
2016-05-13T03:16:15.357Z,17.34
2016-05-13T03:17:15.235Z,17.34
2016-05-13T03:18:15.426Z,17.39
2016-05-13T03:19:15.444Z,17.33
2016-05-13T03:20:15.462Z,17.36
2016-05-13T03:21:15.324Z,17.34
2016-05-13T03:22:15.358Z,17.38
2016-05-13T03:23:15.534Z,17.24
2016-05-13T03:24:15.567Z,17.22
2016-05-13T03:25:15.429Z,17.2
2016-05-13T03:26:15.463Z,17.26
2016-05-13T03:27:15.637Z,17.24
2016-05-13T03:28:15.656Z,17.26
2016-05-13T03:29:15.689Z,17.19
2016-05-13T03:30:15.552Z,17.22
2016-05-13T03:31:15.727Z,17.15
2016-05-13T03:32:15.775Z,17.19
2016-05-13T03:33:15.638Z,17.15
2016-05-13T03:34:15.813Z,17.15
2016-05-13T03:35:15.831Z,17.12
2016-05-13T03:36:15.850Z,17.12
2016-05-13T03:37:15.883Z,17.12
2016-05-13T03:38:15.902Z,17.19
2016-05-13T03:39:15.919Z,17.12
2016-05-13T03:40:15.954Z,17.12
2016-05-13T03:41:15.987Z,17.12
2016-05-13T03:42:16.007Z,17.15
2016-05-13T03:43:16.024Z,17.15
2016-05-13T03:44:16.058Z,17.12
2016-05-13T03:45:16.077Z,17.08
2016-05-13T03:46:16.110Z,17.15
2016-05-13T03:47:16.129Z,17.15
2016-05-13T03:48:16.148Z,17.05
2016-05-13T03:49:16.040Z,17.05
2016-05-13T03:50:16.199Z,17.08
2016-05-13T03:51:16.218Z,17.08
2016-05-13T03:52:16.251Z,17.05
2016-05-13T03:53:16.270Z,17.08
2016-05-13T03:54:16.148Z,17.04
2016-05-13T03:55:16.323Z,17.06
2016-05-13T03:56:16.340Z,17.08
2016-05-13T03:57:16.375Z,16.97
2016-05-13T03:58:16.392Z,17.02
2016-05-13T03:59:16.427Z,17.05
2016-05-13T04:00:16.445Z,17.04
2016-05-13T04:01:16.463Z,17.01
2016-05-13T04:02:16.498Z,17.06
2016-05-13T04:03:16.531Z,17.01
2016-05-13T04:04:16.550Z,17.06
2016-05-13T04:05:16.568Z,17.12
2016-05-13T04:06:16.586Z,17.02
2016-05-13T04:07:16.463Z,17.06
2016-05-13T04:08:16.639Z,17.05
2016-05-13T04:09:16.657Z,16.91
2016-05-13T04:10:16.691Z,17.12
2016-05-13T04:11:16.709Z,16.96
2016-05-13T04:12:16.727Z,16.91
2016-05-13T04:13:16.605Z,16.93
2016-05-13T04:14:16.780Z,16.9
2016-05-13T04:15:16.657Z,17.06
2016-05-13T04:16:16.832Z,17.02
2016-05-13T04:17:16.850Z,17.02
2016-05-13T04:18:16.884Z,16.99
2016-05-13T04:19:16.902Z,17.04
2016-05-13T04:20:16.937Z,16.9
2016-05-13T04:21:16.955Z,16.94
2016-05-13T04:22:16.817Z,17.15
2016-05-13T04:23:17.007Z,17.01
2016-05-13T04:24:17.025Z,17.01
2016-05-13T04:25:17.059Z,16.96
2016-05-13T04:26:17.092Z,16.91
2016-05-13T04:27:17.112Z,17.02
2016-05-13T04:28:17.114Z,17.02
2016-05-13T04:29:17.148Z,17.08
2016-05-13T04:30:17.167Z,17.02
2016-05-13T04:31:17.184Z,17.06
2016-05-13T04:32:17.219Z,16.99
2016-05-13T04:33:17.236Z,17.02
2016-05-13T04:34:17.114Z,16.96
2016-05-13T04:35:17.289Z,17.02
2016-05-13T04:36:17.323Z,17.02
2016-05-13T04:37:17.185Z,17.04
2016-05-13T04:38:17.375Z,16.9
2016-05-13T04:39:17.378Z,16.97
2016-05-13T04:40:17.256Z,17.02
2016-05-13T04:41:17.290Z,16.96
2016-05-13T04:42:17.464Z,16.96
2016-05-13T04:43:17.498Z,16.93
2016-05-13T04:44:17.516Z,17.05
2016-05-13T04:45:17.534Z,17.09
2016-05-13T04:46:17.554Z,17.14
2016-05-13T04:47:17.744Z,17.04
2016-05-13T04:48:17.449Z,16.94
2016-05-13T04:49:17.623Z,17.04
2016-05-13T04:50:17.657Z,17.09
2016-05-13T04:51:17.675Z,16.97
2016-05-13T04:52:17.709Z,16.99
2016-05-13T04:53:17.573Z,17.05
2016-05-13T04:54:17.746Z,17.02
2016-05-13T04:55:17.623Z,17.04
2016-05-13T04:56:17.798Z,17.05
2016-05-13T04:57:17.817Z,17.04
2016-05-13T04:58:17.851Z,17.08
2016-05-13T04:59:17.870Z,17.02
2016-05-13T05:00:17.903Z,17.05
2016-05-13T05:01:17.765Z,17.09
2016-05-13T05:02:17.799Z,17.09
2016-05-13T05:03:17.958Z,17.11
2016-05-13T05:04:17.992Z,17.12
2016-05-13T05:05:18.011Z,17.16
2016-05-13T05:06:18.045Z,17.12
2016-05-13T05:07:18.063Z,17.14
2016-05-13T05:08:18.081Z,17.16
2016-05-13T05:09:18.115Z,17.11
2016-05-13T05:10:18.149Z,17.15
2016-05-13T05:11:18.182Z,17.12
2016-05-13T05:12:18.186Z,17.09
2016-05-13T05:13:18.204Z,17.19
2016-05-13T05:14:17.925Z,17.05
2016-05-13T05:15:18.100Z,17.12
2016-05-13T05:16:18.290Z,17.09
2016-05-13T05:17:18.543Z,17.16
2016-05-13T05:18:18.451Z,17.2
2016-05-13T05:19:18.345Z,17.14
2016-05-13T05:20:18.379Z,17.14
2016-05-13T05:21:18.413Z,17.15
2016-05-13T05:22:18.118Z,17.14
2016-05-13T05:23:18.449Z,17.16
2016-05-13T05:24:18.326Z,17.19
2016-05-13T05:25:18.502Z,17.14
2016-05-13T05:26:18.536Z,17.2
2016-05-13T05:27:18.539Z,17.19
2016-05-13T05:28:18.416Z,17.23
2016-05-13T05:29:18.450Z,17.26
2016-05-13T05:30:18.624Z,17.2
2016-05-13T05:31:18.658Z,17.23
2016-05-13T05:32:18.521Z,17.23
2016-05-13T05:33:18.711Z,17.2
2016-05-13T05:34:18.729Z,17.2
2016-05-13T05:35:18.731Z,17.23
2016-05-13T05:36:18.609Z,17.26
2016-05-13T05:37:18.784Z,17.34
2016-05-13T05:38:18.802Z,17.31
2016-05-13T05:39:18.836Z,17.27
2016-05-13T05:40:18.870Z,17.38
2016-05-13T05:41:18.905Z,17.36
2016-05-13T05:42:18.922Z,17.34
2016-05-13T05:43:18.925Z,17.36
2016-05-13T05:44:18.974Z,17.31
2016-05-13T05:45:18.837Z,17.39
2016-05-13T05:46:19.010Z,17.42
2016-05-13T05:47:19.420Z,17.48
2016-05-13T05:48:19.064Z,17.46
2016-05-13T05:49:18.926Z,17.49
2016-05-13T05:50:19.116Z,17.49
2016-05-13T05:51:19.134Z,17.52
2016-05-13T05:52:19.168Z,17.56
2016-05-13T05:53:19.030Z,17.52
2016-05-13T05:54:19.189Z,17.57
2016-05-13T05:55:19.223Z,17.57
2016-05-13T05:56:19.241Z,17.49
2016-05-13T05:57:19.276Z,17.52
2016-05-13T05:58:19.137Z,17.57
2016-05-13T05:59:19.328Z,17.67
2016-05-13T06:00:19.346Z,17.7
2016-05-13T06:01:19.364Z,17.7
2016-05-13T06:02:19.398Z,17.65
2016-05-13T06:03:19.416Z,17.63
2016-05-13T06:04:19.434Z,17.67
2016-05-13T06:05:19.469Z,17.68
2016-05-13T06:06:19.503Z,17.7
2016-05-13T06:07:19.521Z,17.72
2016-05-13T06:08:19.539Z,17.82
2016-05-13T06:09:19.558Z,17.71
2016-05-13T06:10:19.592Z,17.7
2016-05-13T06:11:19.625Z,17.76
2016-05-13T06:12:19.487Z,17.82
2016-05-13T06:13:19.662Z,17.79
2016-05-13T06:14:19.540Z,17.76
2016-05-13T06:15:19.574Z,17.8
2016-05-13T06:16:19.748Z,17.82
2016-05-13T06:17:19.766Z,17.8
2016-05-13T06:18:19.629Z,17.85
2016-05-13T06:19:19.819Z,17.85
2016-05-13T06:20:19.822Z,17.86
2016-05-13T06:21:19.699Z,17.9
2016-05-13T06:22:19.733Z,17.9
2016-05-13T06:23:20.002Z,18
2016-05-13T06:24:19.926Z,18
2016-05-13T06:25:19.960Z,18.03
2016-05-13T06:26:19.822Z,18.01
2016-05-13T06:27:20.012Z,17.94
2016-05-13T06:28:19.890Z,17.97
2016-05-13T06:29:20.049Z,18.05
2016-05-13T06:30:19.926Z,18.04
2016-05-13T06:31:19.961Z,18.05
2016-05-13T06:32:20.259Z,18.1
2016-05-13T06:33:19.982Z,18.1
2016-05-13T06:34:20.172Z,18.15
2016-05-13T06:35:20.205Z,18.15
2016-05-13T06:36:20.161Z,18.18
2016-05-13T06:37:20.242Z,18.26
2016-05-13T06:38:20.354Z,18.35
2016-05-13T06:39:20.483Z,18.26
2016-05-13T06:40:20.125Z,18.33
2016-05-13T06:41:20.346Z,18.35
2016-05-13T06:42:20.458Z,18.44
2016-05-13T06:43:20.478Z,18.35
2016-05-13T06:44:20.416Z,18.44
2016-05-13T06:45:20.544Z,18.47
2016-05-13T06:46:20.469Z,18.53
2016-05-13T06:47:20.566Z,18.58
2016-05-13T06:48:20.522Z,18.59
2016-05-13T06:49:20.384Z,18.6
2016-05-13T06:50:20.605Z,18.65
2016-05-13T06:51:20.685Z,18.66
2016-05-13T06:52:20.485Z,18.73
2016-05-13T06:53:20.488Z,18.71
2016-05-13T06:54:20.662Z,18.75
2016-05-13T06:55:20.696Z,18.77
2016-05-13T06:56:20.746Z,18.86
2016-05-13T06:57:20.749Z,18.89
2016-05-13T06:58:20.784Z,18.96
2016-05-13T06:59:20.629Z,18.9
2016-05-13T07:00:20.819Z,18.89
2016-05-13T07:01:20.838Z,18.99
2016-05-13T07:02:21.091Z,19.04
2016-05-13T07:03:20.890Z,19.02
2016-05-13T07:04:20.925Z,19.07
2016-05-13T07:05:20.927Z,19.08
2016-05-13T07:06:20.961Z,19.12
2016-05-13T07:07:20.995Z,19.22
2016-05-13T07:08:21.013Z,19.16
2016-05-13T07:09:21.031Z,19.21
2016-05-13T07:10:20.908Z,19.27
2016-05-13T07:11:21.084Z,19.3
2016-05-13T07:12:21.117Z,19.3
2016-05-13T07:13:21.135Z,19.36
2016-05-13T07:14:21.248Z,19.37
2016-05-13T07:15:21.250Z,19.4
2016-05-13T07:16:21.222Z,19.44
2016-05-13T07:17:21.100Z,19.45
2016-05-13T07:18:21.258Z,19.67
2016-05-13T07:19:21.292Z,19.66
2016-05-13T07:20:21.405Z,19.74
2016-05-13T07:21:22.954Z,19.81
2016-05-13T07:22:21.363Z,19.85
2016-05-13T07:23:21.397Z,19.91
2016-05-13T07:24:21.416Z,19.95
2016-05-13T07:25:21.449Z,20.04
2016-05-13T07:26:21.561Z,20.03
2016-05-13T07:27:21.502Z,20.1
2016-05-13T07:28:21.207Z,20.18
2016-05-13T07:29:21.538Z,20.28
2016-05-13T07:30:21.510Z,20.18
2016-05-13T07:31:21.590Z,20.32
2016-05-13T07:32:21.875Z,20.31
2016-05-13T07:33:21.737Z,20.4
2016-05-13T07:34:21.864Z,20.43
2016-05-13T07:35:21.695Z,20.44
2016-05-13T07:36:21.728Z,20.43
2016-05-13T07:37:21.841Z,20.44
2016-05-13T07:38:21.844Z,20.47
2016-05-13T07:39:21.784Z,20.5
2016-05-13T07:40:21.833Z,20.5
2016-05-13T07:41:21.836Z,20.48
2016-05-13T07:42:21.870Z,20.52
2016-05-13T07:43:22.030Z,20.67
2016-05-13T07:44:22.048Z,20.58
2016-05-13T07:45:22.050Z,20.7
2016-05-13T07:46:21.974Z,20.72
2016-05-13T07:47:22.430Z,20.75
2016-05-13T07:48:21.871Z,20.74
2016-05-13T07:49:22.139Z,20.8
2016-05-13T07:50:22.174Z,20.81
2016-05-13T07:51:22.176Z,20.85
2016-05-13T07:52:22.132Z,20.84
2016-05-13T07:53:22.166Z,20.84
2016-05-13T07:54:22.027Z,20.85
2016-05-13T07:55:22.202Z,20.97
2016-05-13T07:56:22.235Z,20.93
2016-05-13T07:57:22.473Z,20.96
2016-05-13T07:58:22.288Z,20.92
2016-05-13T07:59:22.307Z,20.93
2016-05-13T08:00:22.340Z,20.88
2016-05-13T08:01:22.359Z,20.92
2016-05-13T08:02:22.299Z,20.96
2016-05-13T08:03:22.458Z,21.05
2016-05-13T08:04:22.523Z,21.05
2016-05-13T08:05:22.306Z,21.02
2016-05-13T08:06:23.107Z,21.02
2016-05-13T08:07:22.375Z,20.99
2016-05-13T08:08:22.534Z,21
2016-05-13T08:09:22.568Z,21.02
2016-05-13T08:10:22.728Z,21.02
2016-05-13T08:11:22.620Z,21.02
2016-05-13T08:12:22.653Z,21.02
2016-05-13T08:13:22.672Z,21.05
2016-05-13T08:14:22.691Z,20.99
2016-05-13T08:15:22.834Z,20.95
2016-05-13T08:16:22.869Z,20.95
2016-05-13T08:17:22.792Z,20.92
2016-05-13T08:18:22.827Z,20.92
2016-05-13T08:19:22.830Z,20.97
2016-05-13T08:20:22.863Z,20.96
2016-05-13T08:21:22.913Z,20.97
2016-05-13T08:22:23.071Z,20.97
2016-05-13T08:23:22.872Z,21
2016-05-13T08:24:22.968Z,21.05
2016-05-13T08:25:22.829Z,20.99
2016-05-13T08:26:23.005Z,20.97
2016-05-13T08:27:23.038Z,21.09
2016-05-13T08:28:23.072Z,21.14
2016-05-13T08:29:23.168Z,21.18
2016-05-13T08:30:23.124Z,21.21
2016-05-13T08:31:23.159Z,21.22
2016-05-13T08:32:23.176Z,21.3
2016-05-13T08:33:23.210Z,21.35
2016-05-13T08:34:23.245Z,21.35
2016-05-13T08:35:23.262Z,21.4
2016-05-13T08:36:23.281Z,21.48
2016-05-13T08:37:23.159Z,21.5
2016-05-13T08:38:23.428Z,21.46
2016-05-13T08:39:23.352Z,21.61
2016-05-13T08:40:23.401Z,21.55
2016-05-13T08:41:23.264Z,21.61
2016-05-13T08:42:23.438Z,21.72
2016-05-13T08:43:23.566Z,21.77
2016-05-13T08:44:23.584Z,21.8
2016-05-13T08:45:23.524Z,21.85
2016-05-13T08:46:23.558Z,21.82
2016-05-13T08:47:23.702Z,21.92
2016-05-13T08:48:23.626Z,21.96
2016-05-13T08:49:23.472Z,21.92
2016-05-13T08:50:23.756Z,22
2016-05-13T08:51:23.696Z,21.99
2016-05-13T08:52:23.808Z,21.96
2016-05-13T08:53:23.796Z,22.06
2016-05-13T08:54:23.767Z,22
2016-05-13T08:55:23.848Z,21.96
2016-05-13T08:56:23.663Z,22.02
2016-05-13T08:57:23.838Z,22.04
2016-05-13T08:58:23.871Z,22.04
2016-05-13T08:59:23.921Z,22.15
2016-05-13T09:00:24.002Z,22.2
2016-05-13T09:01:24.036Z,22.22
2016-05-13T09:02:24.101Z,22.23
2016-05-13T09:03:24.010Z,22.36
2016-05-13T09:04:24.028Z,22.48
2016-05-13T09:05:24.078Z,22.43
2016-05-13T09:06:24.128Z,22.44
2016-05-13T09:07:24.114Z,22.48
2016-05-13T09:08:24.148Z,22.59
2016-05-13T09:09:24.167Z,22.69
2016-05-13T09:10:24.170Z,22.68
2016-05-13T09:11:24.219Z,22.76
2016-05-13T09:12:24.097Z,22.88
2016-05-13T09:13:24.287Z,22.8
2016-05-13T09:14:24.306Z,22.96
2016-05-13T09:15:24.339Z,22.98
2016-05-13T09:16:24.373Z,22.99
2016-05-13T09:17:24.235Z,23.17
2016-05-13T09:18:24.441Z,23.12
2016-05-13T09:19:24.381Z,23.15
2016-05-13T09:20:24.462Z,23.21
2016-05-13T09:21:24.496Z,23.24
2016-05-13T09:22:24.530Z,23.21
2016-05-13T09:23:24.736Z,23.41
2016-05-13T09:24:24.582Z,23.32
2016-05-13T09:25:24.600Z,23.37
2016-05-13T09:26:24.635Z,23.37
2016-05-13T09:27:24.669Z,23.39
2016-05-13T09:28:24.687Z,23.4
2016-05-13T09:29:24.924Z,23.43
2016-05-13T09:30:24.848Z,23.44
2016-05-13T09:31:24.788Z,23.48
2016-05-13T09:32:25.557Z,23.44
2016-05-13T09:33:24.826Z,23.51
2016-05-13T09:34:24.765Z,23.63
2016-05-13T09:35:24.737Z,23.63
2016-05-13T09:36:24.771Z,23.69
2016-05-13T09:37:24.945Z,23.74
2016-05-13T09:38:24.823Z,23.68
2016-05-13T09:39:25.684Z,23.78
2016-05-13T09:40:25.079Z,23.84
2016-05-13T09:41:25.003Z,23.83
2016-05-13T09:42:25.600Z,23.91
2016-05-13T09:43:25.117Z,23.91
2016-05-13T09:44:25.151Z,23.99
2016-05-13T09:45:25.186Z,23.99
2016-05-13T09:46:25.203Z,24.1
2016-05-13T09:47:25.363Z,24.06
2016-05-13T09:48:25.678Z,24.14
2016-05-13T09:49:26.680Z,24.2
2016-05-13T09:50:25.386Z,24.24
2016-05-13T09:51:25.358Z,24.28
2016-05-13T09:52:25.376Z,24.48
2016-05-13T09:53:25.394Z,24.43
2016-05-13T09:54:25.507Z,24.47
2016-05-13T09:55:25.462Z,24.63
2016-05-13T09:56:25.480Z,24.61
2016-05-13T09:57:25.358Z,24.73
2016-05-13T09:58:25.485Z,24.7
2016-05-13T09:59:25.567Z,24.74
2016-05-13T10:00:25.616Z,24.86
2016-05-13T10:01:25.479Z,24.98
2016-05-13T10:02:26.371Z,24.96
2016-05-13T10:03:25.749Z,25.14
2016-05-13T10:04:25.565Z,25.08
2016-05-13T10:05:25.739Z,25.13
2016-05-13T10:06:25.773Z,25.21
2016-05-13T10:07:25.792Z,25.26
2016-05-13T10:08:25.938Z,25.4
2016-05-13T10:09:25.921Z,25.43
2016-05-13T10:10:25.997Z,25.48
2016-05-13T10:11:25.903Z,25.62
2016-05-13T10:12:25.979Z,25.65
2016-05-13T10:13:26.044Z,25.68
2016-05-13T10:14:26.093Z,25.77
2016-05-13T10:15:26.502Z,25.91
2016-05-13T10:16:26.175Z,25.96
2016-05-13T10:17:26.882Z,26.15
2016-05-13T10:18:26.254Z,26.19
2016-05-13T10:19:26.450Z,26.16
2016-05-13T10:20:26.614Z,26.31
2016-05-13T10:21:26.356Z,26.34
2016-05-13T10:22:26.396Z,26.41
2016-05-13T10:23:26.465Z,26.45
2016-05-13T10:24:26.625Z,26.55
2016-05-13T10:25:26.693Z,26.63
2016-05-13T10:26:26.667Z,26.71
2016-05-13T10:27:26.797Z,26.63
2016-05-13T10:28:26.690Z,26.75
2016-05-13T10:29:26.788Z,26.77
2016-05-13T10:30:26.807Z,26.89
2016-05-13T10:31:26.841Z,26.93
2016-05-13T10:32:26.876Z,27
2016-05-13T10:33:27.239Z,27.1
2016-05-13T10:34:26.788Z,27.15
2016-05-13T10:35:27.057Z,27.26
2016-05-13T10:36:26.998Z,27.29
2016-05-13T10:37:26.892Z,27.26
2016-05-13T10:38:27.050Z,27.39
2016-05-13T10:39:26.928Z,27.39
2016-05-13T10:40:27.181Z,27.37
2016-05-13T10:41:27.137Z,27.39
2016-05-13T10:42:27.030Z,27.48
2016-05-13T10:43:27.299Z,27.49
2016-05-13T10:44:27.083Z,27.51
2016-05-13T10:45:27.272Z,27.54
2016-05-13T10:46:27.385Z,27.63
2016-05-13T10:47:27.324Z,27.74
2016-05-13T10:48:27.484Z,27.73
2016-05-13T10:49:27.393Z,27.9
2016-05-13T10:50:27.271Z,27.85
2016-05-13T10:51:27.446Z,27.95
2016-05-13T10:52:27.417Z,28.11
2016-05-13T10:53:27.357Z,28.04
2016-05-13T10:54:27.531Z,28.07
2016-05-13T10:55:27.643Z,28.1
2016-05-13T10:56:27.599Z,28.22
2016-05-13T10:57:27.633Z,28.23
2016-05-13T10:58:27.652Z,28.38
2016-05-13T10:59:27.529Z,28.44
2016-05-13T11:00:27.719Z,28.44
2016-05-13T11:01:27.753Z,28.38
2016-05-13T11:02:27.803Z,28.45
2016-05-13T11:03:27.681Z,28.51
2016-05-13T11:04:27.683Z,28.47
2016-05-13T11:05:27.889Z,28.59
2016-05-13T11:06:27.908Z,28.62
2016-05-13T11:07:27.956Z,28.57
2016-05-13T11:08:27.991Z,28.64
2016-05-13T11:09:28.009Z,28.6
2016-05-13T11:10:28.044Z,28.62
2016-05-13T11:11:28.155Z,28.78
2016-05-13T11:12:28.095Z,28.67
2016-05-13T11:13:28.130Z,28.66
2016-05-13T11:14:28.241Z,28.82
2016-05-13T11:15:28.041Z,28.88
2016-05-13T11:16:28.262Z,28.85
2016-05-13T11:17:28.765Z,28.85
2016-05-13T11:18:28.799Z,28.78
2016-05-13T11:19:28.161Z,28.81
2016-05-13T11:20:28.366Z,28.79
2016-05-13T11:21:28.401Z,28.85
2016-05-13T11:22:28.466Z,28.88
2016-05-13T11:23:28.469Z,28.94
2016-05-13T11:24:28.471Z,28.96
2016-05-13T11:25:28.209Z,29.04
2016-05-13T11:26:28.540Z,29.05
2016-05-13T11:27:30.151Z,29.17
2016-05-13T11:28:28.623Z,29.27
2016-05-13T11:29:28.641Z,29.29
2016-05-13T11:30:28.768Z,29.32
2016-05-13T11:31:28.693Z,29.35
2016-05-13T11:32:28.806Z,29.41
2016-05-13T11:33:28.855Z,29.35
2016-05-13T11:34:28.889Z,29.39
2016-05-13T11:35:28.861Z,29.42
2016-05-13T11:36:28.706Z,29.47
2016-05-13T11:37:28.897Z,29.5
2016-05-13T11:38:28.775Z,29.54
2016-05-13T11:39:29.059Z,29.59
2016-05-13T11:40:28.842Z,29.68
2016-05-13T11:41:29.033Z,29.71
2016-05-13T11:42:29.160Z,29.86
2016-05-13T11:43:29.085Z,29.94
2016-05-13T11:44:29.228Z,30.06
2016-05-13T11:45:29.262Z,30
2016-05-13T11:46:29.280Z,30.23
2016-05-13T11:47:29.330Z,30.27
2016-05-13T11:48:29.255Z,30.25
2016-05-13T11:49:29.289Z,30.35
2016-05-13T11:50:29.370Z,30.47
2016-05-13T11:51:29.341Z,30.44
2016-05-13T11:52:29.234Z,30.35
2016-05-13T11:53:29.471Z,30.54
2016-05-13T11:54:29.443Z,30.51
2016-05-13T11:55:35.336Z,30.51
2016-05-13T11:56:29.510Z,30.57
2016-05-13T11:57:29.545Z,30.48
2016-05-13T11:58:29.579Z,30.61
2016-05-13T11:59:29.628Z,30.59
2016-05-13T12:00:29.646Z,30.57
2016-05-13T12:01:29.523Z,30.48
2016-05-13T12:02:29.652Z,30.47
2016-05-13T12:03:29.748Z,30.59
2016-05-13T12:04:29.626Z,30.51
2016-05-13T12:05:29.817Z,30.46
2016-05-13T12:06:29.694Z,30.47
2016-05-13T12:07:29.822Z,30.51
2016-05-13T12:08:29.762Z,30.4
2016-05-13T12:09:29.936Z,30.43
2016-05-13T12:10:30.064Z,30.48
2016-05-13T12:11:30.114Z,30.44
2016-05-13T12:12:30.038Z,30.44
2016-05-13T12:13:30.103Z,30.35
2016-05-13T12:14:29.949Z,30.44
2016-05-13T12:15:29.999Z,30.43
2016-05-13T12:16:30.189Z,30.46
2016-05-13T12:17:30.317Z,30.47
2016-05-13T12:18:30.257Z,30.44
2016-05-13T12:19:30.291Z,30.48
2016-05-13T12:20:30.357Z,30.47
2016-05-13T12:21:30.344Z,30.43
2016-05-13T12:22:30.487Z,30.47
2016-05-13T12:23:30.427Z,30.4
2016-05-13T12:24:30.460Z,30.5
2016-05-13T12:25:30.480Z,30.51
2016-05-13T12:26:30.357Z,30.61
2016-05-13T12:27:30.704Z,30.51
2016-05-13T12:28:30.613Z,30.55
2016-05-13T12:29:30.615Z,30.61
2016-05-13T12:30:30.665Z,30.61
2016-05-13T12:31:30.683Z,30.73
2016-05-13T12:32:30.826Z,30.88
2016-05-13T12:33:30.798Z,30.83
2016-05-13T12:34:30.879Z,30.94
2016-05-13T12:35:30.818Z,31.07
2016-05-13T12:36:30.853Z,31.09
2016-05-13T12:37:30.903Z,31.1
2016-05-13T12:38:30.920Z,31.24
2016-05-13T12:39:30.971Z,31.31
2016-05-13T12:40:31.082Z,31.33
2016-05-13T12:41:31.069Z,31.44
2016-05-13T12:42:30.917Z,31.42
2016-05-13T12:43:31.106Z,31.39
2016-05-13T12:44:31.250Z,31.46
2016-05-13T12:45:31.159Z,31.43
2016-05-13T12:46:31.208Z,31.61
2016-05-13T12:47:32.211Z,31.66
2016-05-13T12:48:32.510Z,31.73
2016-05-13T12:49:31.153Z,31.77
2016-05-13T12:50:31.406Z,31.85
2016-05-13T12:51:31.377Z,31.93
2016-05-13T12:52:31.552Z,31.94
2016-05-13T12:53:31.430Z,31.96
2016-05-13T12:54:31.463Z,32.03
2016-05-13T12:55:31.357Z,32
2016-05-13T12:56:31.546Z,31.97